createdAt,value
2023-01-21T00:01:07.583Z,98782.69
2023-01-21T00:02:42.163Z,98792.41
2023-01-21T00:04:15.282Z,98789.13
2023-01-21T00:05:48.531Z,98786.50
2023-01-21T00:07:21.783Z,98802.22
2023-01-21T00:08:55.192Z,98798.69
2023-01-21T00:10:28.417Z,98799.56
2023-01-21T00:12:03.087Z,98809.16
2023-01-21T00:13:36.132Z,98804.72
2023-01-21T00:15:09.983Z,98801.22
2023-01-21T00:16:44.456Z,98807.19
2023-01-21T00:18:17.696Z,98801.91
2023-01-21T00:19:50.881Z,98799.25
2023-01-21T00:21:24.562Z,98803.63
2023-01-21T00:22:57.796Z,98799.22
2023-01-21T00:24:29.986Z,98792.13
2023-01-21T00:26:05.433Z,98793.00
2023-01-21T00:27:39.728Z,98785.25
2023-01-21T00:29:12.907Z,98796.41
2023-01-21T00:30:45.192Z,98793.81
2023-01-21T00:32:20.341Z,98801.59
2023-01-21T00:33:53.804Z,98798.22
2023-01-21T00:35:26.943Z,98798.22
2023-01-21T00:37:00.149Z,98798.28
2023-01-21T00:38:33.557Z,98793.22
2023-01-21T00:40:08.325Z,98796.66
2023-01-21T00:41:41.631Z,98795.88
2023-01-21T00:43:15.069Z,98795.91
2023-01-21T00:44:48.162Z,98796.03
2023-01-21T00:46:21.499Z,98796.97
2023-01-21T00:47:56.281Z,98794.38
2023-01-21T00:49:29.499Z,98792.66
2023-01-21T00:51:02.752Z,98802.28
2023-01-21T00:52:36.160Z,98794.50
2023-01-21T00:54:09.397Z,98805.81
2023-01-21T00:55:42.641Z,98795.47
2023-01-21T00:57:16.324Z,98801.56
2023-01-21T00:58:48.689Z,98816.38
2023-01-21T01:00:22.254Z,98825.09
2023-01-21T01:01:55.531Z,98836.34
2023-01-21T01:03:29.093Z,98830.22
2023-01-21T01:05:02.268Z,98831.94
2023-01-21T01:06:36.151Z,98827.50
2023-01-21T01:08:09.387Z,98815.28
2023-01-21T01:09:42.512Z,98800.66
2023-01-21T01:11:15.887Z,98788.69
2023-01-21T01:12:48.078Z,98770.56
2023-01-21T01:14:21.336Z,98785.47
2023-01-21T01:15:56.152Z,98792.47
2023-01-21T01:17:29.429Z,98806.38
2023-01-21T01:19:04.197Z,98824.69
2023-01-21T01:20:37.461Z,98826.50
2023-01-21T01:22:10.512Z,98820.34
2023-01-21T01:23:44.675Z,98817.75
2023-01-21T01:25:17.972Z,98821.16
2023-01-21T01:26:51.135Z,98817.59
2023-01-21T01:28:23.324Z,98812.25
2023-01-21T01:29:56.533Z,98802.53
2023-01-21T01:31:29.841Z,98808.63
2023-01-21T01:33:03.351Z,98807.72
2023-01-21T01:34:38.534Z,98810.38
2023-01-21T01:36:13.421Z,98803.53
2023-01-21T01:37:46.731Z,98804.44
2023-01-21T01:39:19.927Z,98803.56
2023-01-21T01:40:53.816Z,98791.38
2023-01-21T01:42:27.032Z,98789.53
2023-01-21T01:44:01.964Z,98795.75
2023-01-21T01:45:35.680Z,98789.69
2023-01-21T01:47:08.915Z,98801.03
2023-01-21T01:48:44.281Z,98793.97
2023-01-21T01:50:20.036Z,98790.47
2023-01-21T01:51:57.516Z,98798.28
2023-01-21T01:53:32.114Z,98797.44
2023-01-21T01:55:06.953Z,98799.16
2023-01-21T01:56:44.021Z,98803.50
2023-01-21T01:58:19.527Z,98793.94
2023-01-21T01:59:52.822Z,98800.84
2023-01-21T02:01:26.278Z,98807.03
2023-01-21T02:03:17.320Z,98809.66
2023-01-21T02:04:54.976Z,98815.00
2023-01-21T02:06:29.673Z,98814.31
2023-01-21T02:08:03.581Z,98803.81
2023-01-21T02:09:36.970Z,98796.94
2023-01-21T02:11:12.834Z,98797.81
2023-01-21T02:12:46.337Z,98787.47
2023-01-21T02:14:19.723Z,98785.75
2023-01-21T02:16:04.589Z,98785.69
2023-01-21T02:17:52.803Z,98783.03
2023-01-21T02:19:56.092Z,98783.91
2023-01-21T02:21:51.331Z,98776.91
2023-01-21T02:23:37.932Z,98777.72
2023-01-21T02:25:56.581Z,98776.81
2023-01-21T02:27:48.834Z,98758.53
2023-01-21T02:30:13.087Z,98759.44
2023-01-21T02:32:02.006Z,98770.75
2023-01-21T02:33:52.948Z,98776.03
2023-01-21T02:35:31.891Z,98763.25
2023-01-21T02:37:11.072Z,98759.97
2023-01-21T02:38:53.670Z,98760.06
2023-01-21T02:40:39.119Z,98758.50
2023-01-21T02:42:17.575Z,98749.06
2023-01-21T02:43:58.443Z,98745.53
2023-01-21T02:45:39.409Z,98736.81
2023-01-21T02:47:19.014Z,98727.22
2023-01-21T02:48:58.444Z,98727.19
2023-01-21T02:50:35.507Z,98734.31
2023-01-21T02:52:07.832Z,98744.81
2023-01-21T02:53:41.157Z,98743.91
2023-01-21T02:55:18.144Z,98734.38
2023-01-21T02:56:51.265Z,98740.41
2023-01-21T02:58:29.164Z,98739.50
2023-01-21T03:00:06.108Z,98743.81
2023-01-21T03:01:52.311Z,98739.41
2023-01-21T03:03:56.524Z,98748.16
2023-01-21T03:05:44.299Z,98740.31
2023-01-21T03:07:24.147Z,98737.69
2023-01-21T03:09:02.193Z,98728.97
2023-01-21T03:10:41.804Z,98725.59
2023-01-21T03:12:27.040Z,98727.25
2023-01-21T03:14:23.856Z,98729.22
2023-01-21T03:16:16.387Z,98730.03
2023-01-21T03:17:56.936Z,98723.84
2023-01-21T03:19:38.468Z,98726.38
2023-01-21T03:21:16.594Z,98731.72
2023-01-21T03:22:53.814Z,98732.72
2023-01-21T03:24:26.414Z,98722.38
2023-01-21T03:26:01.761Z,98731.16
2023-01-21T03:27:36.448Z,98742.50
2023-01-21T03:29:17.823Z,98743.38
2023-01-21T03:30:56.740Z,98736.38
2023-01-21T03:32:33.087Z,98734.59
2023-01-21T03:34:08.639Z,98726.72
2023-01-21T03:35:46.757Z,98723.22
2023-01-21T03:37:28.088Z,98716.22
2023-01-21T03:39:06.875Z,98724.94
2023-01-21T03:40:44.489Z,98724.13
2023-01-21T03:42:17.728Z,98732.81
2023-01-21T03:43:50.892Z,98721.53
2023-01-21T03:45:34.213Z,98725.06
2023-01-21T03:47:17.871Z,98711.22
2023-01-21T03:48:56.859Z,98723.50
2023-01-21T03:50:37.330Z,98735.03
2023-01-21T03:52:14.843Z,98755.06
2023-01-21T03:53:52.886Z,98763.75
2023-01-21T03:55:26.233Z,98759.38
2023-01-21T03:56:58.568Z,98768.06
2023-01-21T03:58:32.349Z,98765.44
2023-01-21T04:00:06.351Z,98758.44
2023-01-21T04:01:39.594Z,98749.75
2023-01-21T04:03:12.898Z,98742.00
2023-01-21T04:04:46.105Z,98738.69
2023-01-21T04:06:21.523Z,98744.13
2023-01-21T04:07:56.004Z,98751.31
2023-01-21T04:09:28.455Z,98752.34
2023-01-21T04:11:01.718Z,98754.06
2023-01-21T04:12:35.012Z,98730.63
2023-01-21T04:14:08.284Z,98715.00
2023-01-21T04:15:41.963Z,98705.59
2023-01-21T04:17:15.217Z,98722.09
2023-01-21T04:18:48.737Z,98729.03
2023-01-21T04:20:21.845Z,98735.88
2023-01-21T04:21:55.265Z,98746.25
2023-01-21T04:23:29.997Z,98747.13
2023-01-21T04:25:02.240Z,98735.78
2023-01-21T04:26:35.350Z,98729.66
2023-01-21T04:28:08.708Z,98728.75
2023-01-21T04:29:40.968Z,98723.56
2023-01-21T04:31:14.197Z,98723.47
2023-01-21T04:32:47.559Z,98728.66
2023-01-21T04:34:21.192Z,98736.38
2023-01-21T04:35:58.545Z,98732.00
2023-01-21T04:37:31.805Z,98729.47
2023-01-21T04:39:06.370Z,98720.84
2023-01-21T04:40:39.916Z,98706.97
2023-01-21T04:42:13.101Z,98706.13
2023-01-21T04:43:45.476Z,98710.50
2023-01-21T04:45:18.598Z,98711.38
2023-01-21T04:46:51.940Z,98710.50
2023-01-21T04:48:25.385Z,98701.00
2023-01-21T04:49:58.647Z,98694.88
2023-01-21T04:51:30.847Z,98710.44
2023-01-21T04:53:04.079Z,98717.47
2023-01-21T04:54:38.768Z,98722.69
2023-01-21T04:56:11.962Z,98740.94
2023-01-21T04:57:45.035Z,98743.50
2023-01-21T04:59:18.396Z,98737.38
2023-01-21T05:00:52.132Z,98735.63
2023-01-21T05:02:25.530Z,98732.25
2023-01-21T05:03:58.662Z,98731.41
2023-01-21T05:05:31.966Z,98737.59
2023-01-21T05:07:05.506Z,98737.63
2023-01-21T05:08:38.798Z,98734.28
2023-01-21T05:10:16.791Z,98737.81
2023-01-21T05:11:50.322Z,98725.59
2023-01-21T05:13:23.532Z,98716.06
2023-01-21T05:14:57.812Z,98733.41
2023-01-21T05:16:31.002Z,98736.00
2023-01-21T05:18:04.333Z,98739.47
2023-01-21T05:19:37.697Z,98750.72
2023-01-21T05:21:09.973Z,98752.50
2023-01-21T05:22:43.104Z,98749.81
2023-01-21T05:24:16.519Z,98753.25
2023-01-21T05:25:51.517Z,98742.78
2023-01-21T05:27:24.796Z,98754.91
2023-01-21T05:28:57.874Z,98749.69
2023-01-21T05:30:31.253Z,98748.81
2023-01-21T05:32:04.593Z,98754.91
2023-01-21T05:33:37.988Z,98754.84
2023-01-21T05:35:13.970Z,98757.41
2023-01-21T05:36:47.513Z,98754.81
2023-01-21T05:38:20.916Z,98753.94
2023-01-21T05:39:54.180Z,98749.59
2023-01-21T05:41:28.698Z,98733.97
2023-01-21T05:43:02.080Z,98736.59
2023-01-21T05:44:35.343Z,98731.34
2023-01-21T05:46:08.592Z,98740.88
2023-01-21T05:47:41.790Z,98743.50
2023-01-21T05:49:15.231Z,98751.31
2023-01-21T05:50:48.898Z,98751.38
2023-01-21T05:52:22.268Z,98746.16
2023-01-21T05:53:55.557Z,98751.25
2023-01-21T05:55:28.809Z,98736.38
2023-01-21T05:57:02.391Z,98734.63
2023-01-21T05:58:35.703Z,98745.84
2023-01-21T06:00:10.107Z,98745.75
2023-01-21T06:01:42.393Z,98747.47
2023-01-21T06:03:16.251Z,98757.03
2023-01-21T06:04:48.504Z,98755.28
2023-01-21T06:06:22.358Z,98753.56
2023-01-21T06:07:55.614Z,98752.69
2023-01-21T06:09:28.700Z,98754.38
2023-01-21T06:11:02.045Z,98765.66
2023-01-21T06:12:36.548Z,98763.03
2023-01-21T06:14:09.968Z,98771.69
2023-01-21T06:15:43.295Z,98756.78
2023-01-21T06:17:15.494Z,98742.88
2023-01-21T06:18:48.615Z,98751.66
2023-01-21T06:20:22.043Z,98763.78
2023-01-21T06:21:55.375Z,98757.69
2023-01-21T06:23:28.866Z,98738.66
2023-01-21T06:25:00.948Z,98757.75
2023-01-21T06:26:34.932Z,98762.09
2023-01-21T06:28:11.590Z,98756.75
2023-01-21T06:29:45.056Z,98761.13
2023-01-21T06:31:18.224Z,98755.84
2023-01-21T06:32:51.686Z,98752.31
2023-01-21T06:34:24.825Z,98755.75
2023-01-21T06:35:58.049Z,98763.63
2023-01-21T06:37:31.359Z,98759.16
2023-01-21T06:39:04.848Z,98745.25
2023-01-21T06:40:38.469Z,98762.63
2023-01-21T06:42:11.728Z,98767.69
2023-01-21T06:43:46.206Z,98754.59
2023-01-21T06:45:19.523Z,98731.03
2023-01-21T06:47:00.801Z,98734.38
2023-01-21T06:48:34.477Z,98730.78
2023-01-21T06:50:08.215Z,98728.03
2023-01-21T06:51:41.675Z,98730.56
2023-01-21T06:53:15.009Z,98740.88
2023-01-21T06:54:48.331Z,98746.00
2023-01-21T06:56:22.480Z,98745.91
2023-01-21T06:57:55.753Z,98740.50
2023-01-21T06:59:30.347Z,98745.63
2023-01-21T07:01:03.637Z,98737.03
2023-01-21T07:02:36.852Z,98751.66
2023-01-21T07:04:10.186Z,98738.53
2023-01-21T07:05:43.746Z,98737.50
2023-01-21T07:07:16.981Z,98733.00
2023-01-21T07:08:50.369Z,98732.13
2023-01-21T07:10:24.008Z,98740.38
2023-01-21T07:11:57.257Z,98744.66
2023-01-21T07:13:30.456Z,98750.59
2023-01-21T07:15:05.834Z,98750.44
2023-01-21T07:16:38.315Z,98731.97
2023-01-21T07:18:11.686Z,98724.94
2023-01-21T07:19:44.845Z,98718.84
2023-01-21T07:21:17.988Z,98704.91
2023-01-21T07:22:51.227Z,98690.09
2023-01-21T07:24:24.618Z,98663.97
2023-01-21T07:25:58.041Z,98683.16
2023-01-21T07:27:31.131Z,98674.66
2023-01-21T07:29:05.140Z,98688.41
2023-01-21T07:30:39.904Z,98679.09
2023-01-21T07:32:13.178Z,98673.16
2023-01-21T07:33:46.265Z,98675.16
2023-01-21T07:35:20.357Z,98676.34
2023-01-21T07:36:53.595Z,98676.56
2023-01-21T07:38:26.788Z,98661.00
2023-01-21T07:39:59.858Z,98664.22
2023-01-21T07:41:33.870Z,98671.22
2023-01-21T07:43:06.995Z,98668.94
2023-01-21T07:44:40.432Z,98684.13
2023-01-21T07:46:17.242Z,98680.75
2023-01-21T07:47:51.185Z,98674.81
2023-01-21T07:49:24.413Z,98672.72
2023-01-21T07:50:59.032Z,98676.34
2023-01-21T07:52:33.087Z,98689.44
2023-01-21T07:54:07.000Z,98675.06
2023-01-21T07:55:40.309Z,98675.78
2023-01-21T07:57:13.473Z,98688.06
2023-01-21T07:58:47.165Z,98683.06
2023-01-21T08:00:21.308Z,98697.47
2023-01-21T08:01:55.890Z,98703.56
2023-01-21T08:03:29.153Z,98717.44
2023-01-21T08:05:02.361Z,98709.44
2023-01-21T08:06:37.902Z,98711.44
2023-01-21T08:08:10.994Z,98717.88
2023-01-21T08:09:44.167Z,98710.91
2023-01-21T08:11:17.347Z,98713.56
2023-01-21T08:12:50.904Z,98712.44
2023-01-21T08:14:24.027Z,98696.59
2023-01-21T08:15:58.006Z,98696.75
2023-01-21T08:17:32.493Z,98704.56
2023-01-21T08:19:06.556Z,98699.31
2023-01-21T08:20:39.678Z,98696.22
2023-01-21T08:22:12.874Z,98700.59
2023-01-21T08:23:46.033Z,98702.13
2023-01-21T08:25:19.547Z,98708.09
2023-01-21T08:26:52.761Z,98687.72
2023-01-21T08:28:25.929Z,98690.00
2023-01-21T08:29:59.006Z,98701.25
2023-01-21T08:31:32.444Z,98726.03
2023-01-21T08:33:06.980Z,98702.59
2023-01-21T08:34:40.191Z,98708.78
2023-01-21T08:36:13.350Z,98694.59
2023-01-21T08:37:46.842Z,98697.09
2023-01-21T08:39:20.254Z,98699.56
2023-01-21T08:40:53.489Z,98695.78
2023-01-21T08:42:26.598Z,98699.19
2023-01-21T08:44:00.404Z,98692.41
2023-01-21T08:45:33.565Z,98701.34
2023-01-21T08:47:06.849Z,98708.06
2023-01-21T08:48:41.409Z,98706.00
2023-01-21T08:50:15.152Z,98696.56
2023-01-21T08:51:48.351Z,98700.03
2023-01-21T08:53:21.946Z,98700.84
2023-01-21T08:54:55.227Z,98685.13
2023-01-21T08:56:29.017Z,98684.25
2023-01-21T08:58:02.128Z,98678.84
2023-01-21T08:59:35.347Z,98677.97
2023-01-21T09:01:09.426Z,98669.81
2023-01-21T09:02:43.294Z,98664.31
2023-01-21T09:04:18.188Z,98667.13
2023-01-21T09:05:52.177Z,98659.44
2023-01-21T09:07:25.372Z,98663.22
2023-01-21T09:08:59.544Z,98655.22
2023-01-21T09:10:49.778Z,98656.41
2023-01-21T09:12:22.926Z,98661.84
2023-01-21T09:13:58.039Z,98656.25
2023-01-21T09:15:31.538Z,98656.78
2023-01-21T09:17:04.631Z,98652.97
2023-01-21T09:18:36.919Z,98641.88
2023-01-21T09:20:13.087Z,98643.47
2023-01-21T09:21:46.440Z,98635.47
2023-01-21T09:23:25.760Z,98635.47
2023-01-21T09:24:58.952Z,98619.47
2023-01-21T09:26:32.086Z,98624.69
2023-01-21T09:28:05.708Z,98642.66
2023-01-21T09:29:38.773Z,98630.44
2023-01-21T09:31:13.758Z,98641.25
2023-01-21T09:32:46.839Z,98656.13
2023-01-21T09:34:20.811Z,98641.91
2023-01-21T09:35:56.438Z,98637.47
2023-01-21T09:37:30.079Z,98642.69
2023-01-21T09:39:03.594Z,98638.91
2023-01-21T09:40:37.856Z,98630.81
2023-01-21T09:42:19.535Z,98629.72
2023-01-21T09:44:00.391Z,98624.63
2023-01-21T09:45:33.624Z,98635.72
2023-01-21T09:47:18.137Z,98626.97
2023-01-21T09:48:55.474Z,98631.75
2023-01-21T09:50:28.700Z,98622.72
2023-01-21T09:52:10.592Z,98628.03
2023-01-21T09:53:50.682Z,98617.28
2023-01-21T09:55:29.647Z,98612.78
2023-01-21T09:57:25.051Z,98616.41
2023-01-21T09:59:05.220Z,98612.97
2023-01-21T10:00:46.714Z,98624.03
2023-01-21T10:02:28.889Z,98607.56
2023-01-21T10:04:16.769Z,98597.06
2023-01-21T10:06:09.716Z,98609.97
2023-01-21T10:07:51.808Z,98598.00
2023-01-21T10:09:42.949Z,98589.81
2023-01-21T10:11:30.297Z,98576.31
2023-01-21T10:13:25.347Z,98609.97
2023-01-21T10:15:29.614Z,98609.41
2023-01-21T10:17:08.295Z,98597.34
2023-01-21T10:18:45.331Z,98604.63
2023-01-21T10:20:24.042Z,98583.72
2023-01-21T10:22:02.725Z,98599.88
2023-01-21T10:23:43.128Z,98591.69
2023-01-21T10:25:21.314Z,98587.44
2023-01-21T10:26:55.515Z,98602.25
2023-01-21T10:28:31.839Z,98589.78
2023-01-21T10:30:10.585Z,98590.28
2023-01-21T10:31:48.197Z,98586.66
2023-01-21T10:33:24.105Z,98583.44
2023-01-21T10:34:58.073Z,98596.44
2023-01-21T10:36:57.909Z,98599.88
2023-01-21T10:38:39.755Z,98590.94
2023-01-21T10:40:40.732Z,98590.94
2023-01-21T10:42:32.669Z,98593.13
2023-01-21T10:44:16.713Z,98596.66
2023-01-21T10:45:59.253Z,98605.75
2023-01-21T10:47:40.231Z,98603.47
2023-01-21T10:49:28.604Z,98616.00
2023-01-21T10:51:07.435Z,98601.19
2023-01-21T10:52:47.515Z,98574.25
2023-01-21T10:54:30.893Z,98601.19
2023-01-21T10:56:21.431Z,98589.41
2023-01-21T10:58:00.044Z,98595.50
2023-01-21T10:59:37.222Z,98578.78
2023-01-21T11:01:20.439Z,98589.41
2023-01-21T11:02:58.113Z,98589.13
2023-01-21T11:04:31.490Z,98597.00
2023-01-21T11:06:06.992Z,98593.78
2023-01-21T11:07:42.921Z,98584.88
2023-01-21T11:09:17.290Z,98581.81
2023-01-21T11:10:55.397Z,98581.94
2023-01-21T11:12:30.771Z,98570.06
2023-01-21T11:14:04.421Z,98581.06
2023-01-21T11:15:38.079Z,98566.63
2023-01-21T11:17:11.448Z,98561.03
2023-01-21T11:18:44.617Z,98567.59
2023-01-21T11:20:23.526Z,98581.25
2023-01-21T11:22:04.124Z,98574.69
2023-01-21T11:23:39.284Z,98562.84
2023-01-21T11:25:28.439Z,98573.38
2023-01-21T11:27:02.866Z,98573.28
2023-01-21T11:28:37.698Z,98589.22
2023-01-21T11:30:48.745Z,98593.69
2023-01-21T11:32:24.982Z,98577.28
2023-01-21T11:34:07.069Z,98583.19
2023-01-21T11:35:40.585Z,98576.53
2023-01-21T11:37:24.166Z,98578.31
2023-01-21T11:39:02.629Z,98576.91
2023-01-21T11:40:36.139Z,98571.47
2023-01-21T11:42:16.331Z,98570.75
2023-01-21T11:43:53.212Z,98566.25
2023-01-21T11:45:30.232Z,98578.22
2023-01-21T11:47:03.587Z,98580.53
2023-01-21T11:48:35.776Z,98577.50
2023-01-21T11:50:17.452Z,98580.69
2023-01-21T11:51:51.700Z,98583.94
2023-01-21T11:53:30.023Z,98578.41
2023-01-21T11:55:04.806Z,98581.38
2023-01-21T11:56:38.381Z,98590.88
2023-01-21T11:58:20.133Z,98580.88
2023-01-21T11:59:58.814Z,98580.88
2023-01-21T12:01:32.117Z,98584.31
2023-01-21T12:03:07.347Z,98596.66
2023-01-21T12:04:46.637Z,98599.22
2023-01-21T12:06:22.503Z,98589.06
2023-01-21T12:07:57.294Z,98582.41
2023-01-21T12:09:30.843Z,98584.09
2023-01-21T12:11:07.722Z,98572.91
2023-01-21T12:12:55.426Z,98586.63
2023-01-21T12:14:36.023Z,98583.59
2023-01-21T12:16:33.878Z,98598.88
2023-01-21T12:18:22.376Z,98592.63
2023-01-21T12:20:11.917Z,98593.56
2023-01-21T12:22:00.994Z,98605.41
2023-01-21T12:23:52.048Z,98622.00
2023-01-21T12:25:38.362Z,98600.41
2023-01-21T12:27:21.586Z,98617.69
2023-01-21T12:29:09.975Z,98608.19
2023-01-21T12:30:53.085Z,98625.47
2023-01-21T12:32:32.828Z,98631.59
2023-01-21T12:34:11.840Z,98635.00
2023-01-21T12:35:50.544Z,98632.56
2023-01-21T12:37:29.760Z,98643.09
2023-01-21T12:39:22.299Z,98641.78
2023-01-21T12:41:01.292Z,98633.66
2023-01-21T12:42:40.442Z,98639.38
2023-01-21T12:44:24.947Z,98632.03
2023-01-21T12:46:04.508Z,98628.56
2023-01-21T12:47:44.833Z,98634.25
2023-01-21T12:49:24.020Z,98618.72
2023-01-21T12:51:00.310Z,98625.63
2023-01-21T12:52:43.355Z,98627.25
2023-01-21T12:54:24.928Z,98632.75
2023-01-21T12:56:09.624Z,98642.28
2023-01-21T12:57:49.852Z,98630.00
2023-01-21T12:59:29.912Z,98642.66
2023-01-21T13:01:10.628Z,98644.53
2023-01-21T13:02:53.748Z,98646.06
2023-01-21T13:04:43.683Z,98660.97
2023-01-21T13:06:29.510Z,98661.75
2023-01-21T13:08:28.863Z,98660.13
2023-01-21T13:10:13.577Z,98666.28
2023-01-21T13:11:53.808Z,98666.78
2023-01-21T13:13:31.574Z,98689.47
2023-01-21T13:15:15.816Z,98678.16
2023-01-21T13:16:53.970Z,98683.28
2023-01-21T13:18:33.875Z,98684.44
2023-01-21T13:20:15.994Z,98677.97
2023-01-21T13:21:56.041Z,98681.00
2023-01-21T13:23:38.721Z,98678.75
2023-01-21T13:25:28.808Z,98668.31
2023-01-21T13:27:12.557Z,98675.13
2023-01-21T13:28:50.965Z,98676.84
2023-01-21T13:30:31.665Z,98680.28
2023-01-21T13:32:36.359Z,98686.66
2023-01-21T13:34:19.801Z,98681.97
2023-01-21T13:36:06.541Z,98686.53
2023-01-21T13:37:48.424Z,98695.88
2023-01-21T13:39:30.316Z,98694.91
2023-01-21T13:41:14.220Z,98697.06
2023-01-21T13:42:57.778Z,98688.53
2023-01-21T13:44:55.906Z,98693.53
2023-01-21T13:46:49.814Z,98686.72
2023-01-21T13:48:40.850Z,98697.16
2023-01-21T13:50:25.815Z,98696.97
2023-01-21T13:52:08.004Z,98698.88
2023-01-21T13:53:58.624Z,98697.16
2023-01-21T13:55:45.970Z,98695.28
2023-01-21T13:57:35.619Z,98690.41
2023-01-21T13:59:15.176Z,98690.50
2023-01-21T14:00:54.741Z,98692.25
2023-01-21T14:02:35.031Z,98687.28
2023-01-21T14:04:14.675Z,98685.97
2023-01-21T14:05:53.177Z,98688.25
2023-01-21T14:07:30.381Z,98676.09
2023-01-21T14:09:07.274Z,98694.44
2023-01-21T14:10:47.082Z,98681.00
2023-01-21T14:12:29.272Z,98682.16
2023-01-21T14:14:34.671Z,98687.56
2023-01-21T14:16:36.351Z,98684.44
2023-01-21T14:18:28.119Z,98685.75
2023-01-21T14:20:20.821Z,98687.66
2023-01-21T14:22:11.655Z,98674.69
2023-01-21T14:24:05.271Z,98674.13
2023-01-21T14:25:55.893Z,98669.75
2023-01-21T14:27:38.963Z,98670.53
2023-01-21T14:29:19.553Z,98665.38
2023-01-21T14:31:02.682Z,98664.34
2023-01-21T14:32:42.560Z,98660.06
2023-01-21T14:34:19.297Z,98657.22
2023-01-21T14:36:02.842Z,98659.88
2023-01-21T14:37:44.052Z,98657.63
2023-01-21T14:39:33.043Z,98655.94
2023-01-21T14:41:08.002Z,98654.25
2023-01-21T14:42:43.976Z,98673.78
2023-01-21T14:44:37.639Z,98666.56
2023-01-21T14:46:28.767Z,98666.41
2023-01-21T14:48:02.149Z,98656.81
2023-01-21T14:49:43.308Z,98652.69
2023-01-21T14:51:23.096Z,98663.31
2023-01-21T14:52:57.802Z,98657.31
2023-01-21T14:54:31.185Z,98657.59
2023-01-21T14:56:12.470Z,98661.38
2023-01-21T14:57:46.853Z,98667.28
2023-01-21T14:59:34.632Z,98660.25
2023-01-21T15:01:25.517Z,98670.88
2023-01-21T15:03:16.436Z,98671.75
2023-01-21T15:04:55.655Z,98675.19
2023-01-21T15:06:29.303Z,98677.94
2023-01-21T15:08:09.701Z,98680.16
2023-01-21T15:09:47.923Z,98674.69
2023-01-21T15:11:23.204Z,98671.28
2023-01-21T15:12:59.833Z,98677.63
2023-01-21T15:14:37.165Z,98667.84
2023-01-21T15:16:17.337Z,98682.16
2023-01-21T15:18:05.171Z,98687.41
2023-01-21T15:19:38.342Z,98697.06
2023-01-21T15:21:38.476Z,98698.03
2023-01-21T15:23:21.491Z,98706.75
2023-01-21T15:25:20.960Z,98706.75
2023-01-21T15:27:19.962Z,98697.34
2023-01-21T15:28:56.404Z,98707.88
2023-01-21T15:30:47.788Z,98703.16
2023-01-21T15:32:32.414Z,98703.75
2023-01-21T15:34:14.729Z,98708.09
2023-01-21T15:35:48.092Z,98708.09
2023-01-21T15:37:24.465Z,98709.84
2023-01-21T15:39:02.788Z,98683.69
2023-01-21T15:40:39.251Z,98701.44
2023-01-21T15:42:23.355Z,98693.47
2023-01-21T15:44:09.467Z,98713.81
2023-01-21T15:45:50.996Z,98708.50
2023-01-21T15:47:42.021Z,98707.53
2023-01-21T15:49:37.400Z,98723.22
2023-01-21T15:51:21.246Z,98732.03
2023-01-21T15:53:06.975Z,98734.50
2023-01-21T15:54:51.136Z,98744.19
2023-01-21T15:56:38.207Z,98736.22
2023-01-21T15:58:24.124Z,98743.44
2023-01-21T16:00:13.568Z,98746.84
2023-01-21T16:02:02.448Z,98741.75
2023-01-21T16:03:42.919Z,98724.31
2023-01-21T16:05:29.010Z,98735.84
2023-01-21T16:07:20.659Z,98736.72
2023-01-21T16:09:04.638Z,98732.47
2023-01-21T16:10:55.552Z,98743.84
2023-01-21T16:12:38.007Z,98743.09
2023-01-21T16:14:26.697Z,98744.00
2023-01-21T16:16:11.725Z,98745.84
2023-01-21T16:18:00.655Z,98763.41
2023-01-21T16:19:37.852Z,98766.75
2023-01-21T16:21:12.832Z,98774.66
2023-01-21T16:22:50.175Z,98772.00
2023-01-21T16:24:28.464Z,98777.41
2023-01-21T16:26:04.147Z,98774.03
2023-01-21T16:27:37.269Z,98761.72
2023-01-21T16:29:13.265Z,98760.75
2023-01-21T16:30:55.598Z,98776.72
2023-01-21T16:32:31.023Z,98773.25
2023-01-21T16:34:04.198Z,98775.75
2023-01-21T16:35:46.256Z,98785.63
2023-01-21T16:37:21.561Z,98780.31
2023-01-21T16:38:54.668Z,98768.81
2023-01-21T16:40:30.721Z,98802.44
2023-01-21T16:42:07.645Z,98812.22
2023-01-21T16:43:47.183Z,98806.31
2023-01-21T16:45:23.584Z,98793.38
2023-01-21T16:46:57.204Z,98812.00
2023-01-21T16:48:33.443Z,98813.09
2023-01-21T16:50:20.358Z,98813.47
2023-01-21T16:51:58.142Z,98801.47
2023-01-21T16:53:31.447Z,98815.09
2023-01-21T16:55:19.050Z,98806.38
2023-01-21T16:56:56.696Z,98809.19
2023-01-21T16:58:33.366Z,98811.28
2023-01-21T17:00:23.649Z,98813.31
2023-01-21T17:01:59.807Z,98810.94
2023-01-21T17:03:33.768Z,98802.44
2023-01-21T17:05:08.324Z,98807.09
2023-01-21T17:06:44.164Z,98808.88
2023-01-21T17:08:17.826Z,98800.16
2023-01-21T17:09:57.925Z,98810.78
2023-01-21T17:11:31.514Z,98810.69
2023-01-21T17:13:07.360Z,98822.78
2023-01-21T17:14:42.345Z,98810.25
2023-01-21T17:16:24.901Z,98817.97
2023-01-21T17:18:01.537Z,98803.63
2023-01-21T17:19:37.808Z,98818.28
2023-01-21T17:21:15.798Z,98826.69
2023-01-21T17:22:49.187Z,98823.59
2023-01-21T17:24:26.747Z,98829.59
2023-01-21T17:26:04.952Z,98828.53
2023-01-21T17:27:43.750Z,98830.78
2023-01-21T17:29:21.635Z,98826.13
2023-01-21T17:31:10.004Z,98819.09
2023-01-21T17:32:43.477Z,98819.78
2023-01-21T17:34:23.237Z,98825.97
2023-01-21T17:36:13.368Z,98835.72
2023-01-21T17:37:54.826Z,98841.81
2023-01-21T17:40:01.292Z,98829.47
2023-01-21T17:41:38.064Z,98832.16
2023-01-21T17:43:20.719Z,98838.47
2023-01-21T17:44:57.917Z,98848.44
2023-01-21T17:46:33.682Z,98838.16
2023-01-21T17:48:11.710Z,98826.16
2023-01-21T17:49:47.194Z,98838.59
2023-01-21T17:51:23.507Z,98837.72
2023-01-21T17:52:59.729Z,98833.53
2023-01-21T17:54:33.146Z,98840.75
2023-01-21T17:56:08.751Z,98836.56
2023-01-21T17:57:42.391Z,98839.38
2023-01-21T17:59:28.032Z,98823.94
2023-01-21T18:01:03.020Z,98846.81
2023-01-21T18:02:37.787Z,98847.59
2023-01-21T18:04:10.950Z,98864.44
2023-01-21T18:05:45.014Z,98851.88
2023-01-21T18:07:23.605Z,98862.50
2023-01-21T18:08:58.653Z,98842.97
2023-01-21T18:10:32.143Z,98851.56
2023-01-21T18:12:06.429Z,98847.78
2023-01-21T18:13:41.483Z,98847.59
2023-01-21T18:15:16.122Z,98844.00
2023-01-21T18:16:50.201Z,98832.59
2023-01-21T18:18:28.846Z,98845.53
2023-01-21T18:20:02.088Z,98840.06
2023-01-21T18:21:35.639Z,98829.25
2023-01-21T18:23:12.222Z,98828.38
2023-01-21T18:24:45.559Z,98819.91
2023-01-21T18:26:26.753Z,98823.22
2023-01-21T18:28:00.219Z,98832.81
2023-01-21T18:29:33.580Z,98824.09
2023-01-21T18:31:09.637Z,98836.28
2023-01-21T18:32:43.057Z,98825.63
2023-01-21T18:34:17.980Z,98826.38
2023-01-21T18:35:52.650Z,98819.38
2023-01-21T18:37:26.596Z,98813.88
2023-01-21T18:39:00.102Z,98819.78
2023-01-21T18:40:33.541Z,98816.94
2023-01-21T18:42:06.948Z,98828.34
2023-01-21T18:43:40.239Z,98823.97
2023-01-21T18:45:18.733Z,98823.69
2023-01-21T18:46:52.319Z,98834.25
2023-01-21T18:48:30.219Z,98820.81
2023-01-21T18:50:05.537Z,98823.31
2023-01-21T18:51:39.138Z,98836.44
2023-01-21T18:53:14.305Z,98841.91
2023-01-21T18:54:47.863Z,98837.00
2023-01-21T18:56:22.130Z,98847.06
2023-01-21T18:57:56.989Z,98834.69
2023-01-21T18:59:30.394Z,98854.09
2023-01-21T19:01:10.959Z,98845.16
2023-01-21T19:02:55.963Z,98864.56
2023-01-21T19:04:29.318Z,98860.94
2023-01-21T19:06:04.269Z,98865.38
2023-01-21T19:07:37.483Z,98867.13
2023-01-21T19:09:20.601Z,98868.75
2023-01-21T19:10:54.218Z,98869.88